메인 페이지
METAR-TAF:

METAR-TAF

공항 :

지브롤터 공항

지브롤터, 지브롤터

위도: 36-09N, 경도: 005-21W, 고도: 5m

현재 날씨관측

예보는 1 시간 9분 전, 15:50시(UTC)에 발표되었습니다.
21kt
온도 17°C
습도 77%
기압 1015 hPa
시정 10km 이상

METAR: LXGB 041550Z AUTO 09021KT 9999 // FEW016/// BKN040/// 17/13 Q1015

시각: 18:59 (16:59 UTC)

예보

예보는 3 시간 26분 전, 13:33시(UTC)에 발표되었습니다.
예보 대상 시간: 04일 15시부터 04일 23시까지 (UTC)
23kt
시정 10km 이상
고도 2500ft 상공 구름 보통
전환 중
04일 15시부터 04일 18시까지 (UTC)
15kt, 순간 최대 풍속 25kt
일시적
04일 15시부터 04일 18시까지 (UTC)
고도 1800ft 상공 구름 많음

TAF: LXGB 041333Z 0415/0423 09023KT 9999 SCT025 530003 BECMG 0415/0418 10015G25KT 520002 TEMPO 0415/0418 BKN018

4,000개 이상의 공항 관측 자료 및 예보 (METAR 및 TAF 보고).

지도상에서 검색 가능한 기상관측소가 노란 점과 빨간 점으로 표시되어 있습니다.

기상관측소 명을 보려면 표시 위로 마우스를 이동하세요.

날씨 관측과 예보를 보려면 클릭하세요.

지도 변경 : 확대하려면 엑스 표시가 있는 녹색 버튼, 축소하려면 빼기 표시가 있는 녹색 버튼, 다음 페이지의 지도를 보려면 녹색 화살표를 클릭하세요.


METAR-TAF: